createdAt,value
2017-09-14T00:00:11.541Z,0
2017-09-14T00:01:12.241Z,0
2017-09-14T00:02:12.989Z,0
2017-09-14T00:03:13.722Z,0
2017-09-14T00:04:14.425Z,0
2017-09-14T00:05:15.200Z,0
2017-09-14T00:06:16.010Z,0
2017-09-14T00:07:16.795Z,0
2017-09-14T00:08:17.560Z,0
2017-09-14T00:09:18.266Z,0
2017-09-14T00:10:19.079Z,0
2017-09-14T00:11:19.811Z,0
2017-09-14T00:12:20.587Z,0
2017-09-14T00:13:21.250Z,0
2017-09-14T00:14:21.976Z,0
2017-09-14T00:15:22.729Z,0
2017-09-14T00:16:23.425Z,0
2017-09-14T00:17:24.145Z,0
2017-09-14T00:18:24.915Z,0
2017-09-14T00:19:25.628Z,0
2017-09-14T00:20:26.488Z,0
2017-09-14T00:21:27.192Z,0
2017-09-14T00:22:27.887Z,0
2017-09-14T00:23:28.605Z,0
2017-09-14T00:24:29.323Z,0
2017-09-14T00:25:30.085Z,0
2017-09-14T00:26:30.857Z,0
2017-09-14T00:27:31.591Z,0
2017-09-14T00:28:32.317Z,0
2017-09-14T00:29:33.088Z,0
2017-09-14T00:30:33.874Z,0
2017-09-14T00:31:34.609Z,0
2017-09-14T00:32:35.326Z,0
2017-09-14T00:33:36.096Z,0
2017-09-14T00:34:36.805Z,0
2017-09-14T00:35:37.606Z,0
2017-09-14T00:36:38.421Z,0
2017-09-14T00:37:39.087Z,0
2017-09-14T00:38:39.829Z,0
2017-09-14T00:39:40.554Z,0
2017-09-14T00:40:41.347Z,0
2017-09-14T00:41:42.069Z,0
2017-09-14T00:42:42.835Z,0
2017-09-14T00:43:43.600Z,0
2017-09-14T00:44:44.336Z,0
2017-09-14T00:45:45.141Z,0
2017-09-14T00:46:46.109Z,0
2017-09-14T00:47:46.842Z,0
2017-09-14T00:48:47.592Z,0
2017-09-14T00:49:48.329Z,0
2017-09-14T00:50:49.098Z,0
2017-09-14T00:51:49.820Z,0
2017-09-14T00:52:50.545Z,0
2017-09-14T00:53:51.281Z,0
2017-09-14T00:54:52.001Z,0
2017-09-14T00:55:52.786Z,0
2017-09-14T00:56:53.553Z,0
2017-09-14T00:57:54.268Z,0
2017-09-14T00:58:55.026Z,0
2017-09-14T00:59:55.818Z,0
2017-09-14T01:00:56.618Z,0
2017-09-14T01:01:57.395Z,0
2017-09-14T01:02:58.453Z,0
2017-09-14T01:03:59.184Z,0
2017-09-14T01:04:59.913Z,0
2017-09-14T01:06:00.718Z,0
2017-09-14T01:07:01.501Z,0
2017-09-14T01:08:02.272Z,0
2017-09-14T01:09:02.997Z,0
2017-09-14T01:10:03.767Z,0
2017-09-14T01:11:04.457Z,0
2017-09-14T01:12:05.250Z,0
2017-09-14T01:13:05.966Z,0
2017-09-14T01:14:06.682Z,0
2017-09-14T01:15:07.487Z,0
2017-09-14T01:16:08.160Z,0
2017-09-14T01:17:08.914Z,0
2017-09-14T01:18:09.645Z,0
2017-09-14T01:19:10.501Z,0
2017-09-14T01:20:11.187Z,0
2017-09-14T01:21:11.967Z,0
2017-09-14T01:22:12.739Z,0
2017-09-14T01:23:13.444Z,0
2017-09-14T01:24:14.330Z,0
2017-09-14T01:25:15.283Z,0
2017-09-14T01:26:16.032Z,0
2017-09-14T01:27:16.774Z,0
2017-09-14T01:28:17.517Z,0
2017-09-14T01:29:18.311Z,0
2017-09-14T01:30:19.190Z,0
2017-09-14T01:31:19.948Z,0
2017-09-14T01:32:20.756Z,0
2017-09-14T01:33:21.493Z,0
2017-09-14T01:34:22.294Z,0
2017-09-14T01:35:23.057Z,0
2017-09-14T01:36:24.249Z,0
2017-09-14T01:37:24.941Z,0
2017-09-14T01:38:25.655Z,0
2017-09-14T01:39:26.378Z,0
2017-09-14T01:40:27.208Z,0
2017-09-14T01:41:27.882Z,0
2017-09-14T01:42:28.776Z,0
2017-09-14T01:43:29.556Z,0
2017-09-14T01:44:30.339Z,0
2017-09-14T01:45:31.141Z,0
2017-09-14T01:46:31.856Z,0
2017-09-14T01:47:32.572Z,0
2017-09-14T01:48:33.365Z,0
2017-09-14T01:49:34.127Z,0
2017-09-14T01:50:34.886Z,0
2017-09-14T01:51:35.716Z,0
2017-09-14T01:52:36.365Z,0
2017-09-14T01:53:37.513Z,0
2017-09-14T01:54:38.369Z,0
2017-09-14T01:55:39.034Z,0
2017-09-14T01:56:39.760Z,0
2017-09-14T01:57:40.533Z,0
2017-09-14T01:58:41.233Z,0
2017-09-14T01:59:41.985Z,0
2017-09-14T02:00:42.861Z,0
2017-09-14T02:01:43.544Z,0
2017-09-14T02:02:44.325Z,0
2017-09-14T02:03:45.111Z,0
2017-09-14T02:04:45.763Z,0
2017-09-14T02:05:46.586Z,0
2017-09-14T02:06:47.305Z,0
2017-09-14T02:07:48.141Z,0
2017-09-14T02:08:48.785Z,0
2017-09-14T02:09:49.502Z,0
2017-09-14T02:10:50.258Z,0
2017-09-14T02:11:50.939Z,0
2017-09-14T02:12:51.666Z,0
2017-09-14T02:13:52.370Z,0
2017-09-14T02:14:53.115Z,0
2017-09-14T02:15:53.819Z,0
2017-09-14T02:16:54.589Z,0
2017-09-14T02:17:55.283Z,0
2017-09-14T02:18:56.047Z,0
2017-09-14T02:19:56.767Z,0
2017-09-14T02:20:57.562Z,0
2017-09-14T02:21:58.359Z,0
2017-09-14T02:22:59.114Z,0
2017-09-14T02:23:59.835Z,0
2017-09-14T02:25:00.740Z,0
2017-09-14T02:26:01.502Z,0
2017-09-14T02:27:02.248Z,0
2017-09-14T02:28:02.957Z,0
2017-09-14T02:29:03.677Z,0
2017-09-14T02:30:04.578Z,0
2017-09-14T02:31:05.350Z,0
2017-09-14T02:32:06.082Z,0
2017-09-14T02:33:06.809Z,0
2017-09-14T02:34:07.525Z,0
2017-09-14T02:35:08.270Z,0
2017-09-14T02:36:08.961Z,0
2017-09-14T02:37:09.731Z,0
2017-09-14T02:38:10.468Z,0
2017-09-14T02:39:11.182Z,0
2017-09-14T02:40:11.925Z,0
2017-09-14T02:41:12.648Z,0
2017-09-14T02:42:13.445Z,0
2017-09-14T02:43:14.120Z,0
2017-09-14T02:44:14.908Z,0
2017-09-14T02:45:16.117Z,0
2017-09-14T02:46:16.781Z,0
2017-09-14T02:47:17.564Z,0
2017-09-14T02:48:18.314Z,0
2017-09-14T02:49:19.129Z,0
2017-09-14T02:50:19.845Z,0
2017-09-14T02:51:20.633Z,0
2017-09-14T02:52:21.401Z,0
2017-09-14T02:53:22.108Z,0
2017-09-14T02:54:22.852Z,0
2017-09-14T02:55:23.579Z,0
2017-09-14T02:56:24.432Z,0
2017-09-14T02:57:25.181Z,0
2017-09-14T02:58:25.923Z,0
2017-09-14T02:59:26.620Z,0
2017-09-14T03:00:27.399Z,0
2017-09-14T03:01:28.124Z,0
2017-09-14T03:02:28.872Z,0
2017-09-14T03:03:29.602Z,0
2017-09-14T03:04:30.628Z,0
2017-09-14T03:05:31.413Z,0
2017-09-14T03:06:32.129Z,0
2017-09-14T03:07:32.872Z,0
2017-09-14T03:08:33.717Z,0
2017-09-14T03:09:34.399Z,0
2017-09-14T03:10:35.153Z,0
2017-09-14T03:11:35.905Z,0
2017-09-14T03:12:36.634Z,0
2017-09-14T03:13:37.415Z,0
2017-09-14T03:14:38.090Z,0
2017-09-14T03:15:38.787Z,0
2017-09-14T03:16:39.532Z,0
2017-09-14T03:17:40.228Z,0
2017-09-14T03:18:41.021Z,0
2017-09-14T03:19:41.725Z,0
2017-09-14T03:20:42.481Z,0
2017-09-14T03:21:43.202Z,0
2017-09-14T03:22:43.941Z,0
2017-09-14T03:23:57.388Z,0
2017-09-14T03:24:58.148Z,0
2017-09-14T03:25:58.868Z,0
2017-09-14T03:26:59.616Z,0
2017-09-14T03:28:00.361Z,0
2017-09-14T03:29:01.095Z,0
2017-09-14T03:30:01.906Z,0
2017-09-14T03:31:02.655Z,0
2017-09-14T03:32:03.382Z,0
2017-09-14T03:33:04.142Z,0
2017-09-14T03:34:04.896Z,0
2017-09-14T03:35:05.612Z,0
2017-09-14T03:36:06.361Z,0
2017-09-14T03:37:07.077Z,0
2017-09-14T03:38:07.857Z,0
2017-09-14T03:39:08.560Z,0
2017-09-14T03:40:09.344Z,0
2017-09-14T03:41:10.078Z,0
2017-09-14T03:42:10.796Z,0
2017-09-14T03:43:11.582Z,0
2017-09-14T03:44:12.375Z,0
2017-09-14T03:45:13.262Z,0
2017-09-14T03:46:13.962Z,0
2017-09-14T03:47:14.724Z,0
2017-09-14T03:48:15.744Z,0
2017-09-14T03:49:16.651Z,0
2017-09-14T03:50:17.405Z,0
2017-09-14T03:51:18.186Z,0
2017-09-14T03:52:18.955Z,0
2017-09-14T03:53:19.960Z,0
2017-09-14T03:54:20.827Z,0
2017-09-14T03:55:21.669Z,0
2017-09-14T03:56:22.394Z,0
2017-09-14T03:57:23.804Z,0
2017-09-14T03:58:24.820Z,0
2017-09-14T03:59:25.642Z,0
2017-09-14T04:00:26.420Z,0
2017-09-14T04:01:27.512Z,0
2017-09-14T04:02:28.252Z,0
2017-09-14T04:03:29.087Z,0
2017-09-14T04:04:29.817Z,0
2017-09-14T04:05:30.599Z,0
2017-09-14T04:06:31.575Z,0
2017-09-14T04:07:32.375Z,0
2017-09-14T04:08:33.136Z,0
2017-09-14T04:09:33.918Z,0
2017-09-14T04:10:34.750Z,0
2017-09-14T04:11:35.681Z,0
2017-09-14T04:12:36.652Z,0
2017-09-14T04:13:37.900Z,0
2017-09-14T04:14:38.631Z,0
2017-09-14T04:15:40.110Z,0
2017-09-14T04:16:40.794Z,0
2017-09-14T04:17:41.582Z,0
2017-09-14T04:18:42.680Z,0
2017-09-14T04:19:43.476Z,0
2017-09-14T04:20:44.362Z,0
2017-09-14T04:21:45.183Z,0
2017-09-14T04:22:45.924Z,0
2017-09-14T04:23:46.680Z,0
2017-09-14T04:24:47.481Z,0
2017-09-14T04:25:48.225Z,0
2017-09-14T04:26:49.013Z,0
2017-09-14T04:27:49.857Z,0
2017-09-14T04:28:50.905Z,0
2017-09-14T04:29:52.493Z,0
2017-09-14T04:30:53.558Z,0
2017-09-14T04:31:54.343Z,0
2017-09-14T04:32:55.098Z,0
2017-09-14T04:33:56.187Z,0
2017-09-14T04:34:56.943Z,4
2017-09-14T04:35:57.732Z,4
2017-09-14T04:36:58.499Z,0
2017-09-14T04:37:59.313Z,0
2017-09-14T04:39:00.082Z,4
2017-09-14T04:40:00.951Z,4
2017-09-14T04:41:01.750Z,4
2017-09-14T04:42:02.723Z,0
2017-09-14T04:43:03.447Z,0
2017-09-14T04:44:04.238Z,4
2017-09-14T04:45:05.039Z,4
2017-09-14T04:46:06.520Z,4
2017-09-14T04:47:07.202Z,4
2017-09-14T04:48:08.129Z,4
2017-09-14T04:49:09.025Z,8
2017-09-14T04:50:09.868Z,4
2017-09-14T04:51:10.638Z,4
2017-09-14T04:52:11.395Z,8
2017-09-14T04:53:12.120Z,8
2017-09-14T04:54:12.878Z,4
2017-09-14T04:55:13.707Z,8
2017-09-14T04:56:14.829Z,8
2017-09-14T04:57:15.541Z,8
2017-09-14T04:58:16.683Z,8
2017-09-14T04:59:17.412Z,8
2017-09-14T05:00:18.266Z,8
2017-09-14T05:01:19.051Z,8
2017-09-14T05:02:24.838Z,12
2017-09-14T05:03:25.552Z,12
2017-09-14T05:04:26.324Z,16
2017-09-14T05:05:27.059Z,16
2017-09-14T05:06:28.136Z,16
2017-09-14T05:07:28.928Z,16
2017-09-14T05:08:29.673Z,20
2017-09-14T05:09:30.496Z,24
2017-09-14T05:10:31.227Z,28
2017-09-14T05:11:31.955Z,32
2017-09-14T05:12:33.063Z,32
2017-09-14T05:13:34.013Z,32
2017-09-14T05:14:34.770Z,36
2017-09-14T05:15:35.648Z,40
2017-09-14T05:16:37.007Z,44
2017-09-14T05:17:37.853Z,44
2017-09-14T05:18:38.835Z,44
2017-09-14T05:19:39.879Z,44
2017-09-14T05:20:40.664Z,48
2017-09-14T05:21:41.409Z,52
2017-09-14T05:22:42.164Z,56
2017-09-14T05:23:42.918Z,64
2017-09-14T05:24:43.888Z,72
2017-09-14T05:25:44.844Z,76
2017-09-14T05:26:45.935Z,76
2017-09-14T05:27:46.879Z,80
2017-09-14T05:28:47.635Z,80
2017-09-14T05:29:48.399Z,76
2017-09-14T05:30:49.261Z,80
2017-09-14T05:31:49.998Z,76
2017-09-14T05:32:51.057Z,76
2017-09-14T05:33:51.853Z,80
2017-09-14T05:34:52.712Z,76
2017-09-14T05:35:53.491Z,72
2017-09-14T05:36:54.291Z,72
2017-09-14T05:37:55.010Z,68
2017-09-14T05:38:55.976Z,68
2017-09-14T05:39:56.925Z,68
2017-09-14T05:40:57.768Z,64
2017-09-14T05:41:58.688Z,64
2017-09-14T05:42:59.389Z,64
2017-09-14T05:44:00.160Z,68
2017-09-14T05:45:00.943Z,76
2017-09-14T05:46:01.799Z,88
2017-09-14T05:47:03.204Z,108
2017-09-14T05:49:20.743Z,104
2017-09-14T05:50:21.563Z,92
2017-09-14T05:51:22.408Z,84
2017-09-14T05:52:23.212Z,80
2017-09-14T05:53:23.988Z,76
2017-09-14T05:54:24.803Z,72
2017-09-14T05:55:25.948Z,72
2017-09-14T05:56:26.899Z,76
2017-09-14T05:57:27.932Z,80
2017-09-14T05:58:28.779Z,84
2017-09-14T05:59:29.862Z,96
2017-09-14T06:00:30.996Z,108
2017-09-14T06:01:37.045Z,116
2017-09-14T06:02:37.853Z,124
2017-09-14T06:03:38.635Z,136
2017-09-14T06:04:39.410Z,144
2017-09-14T06:05:40.602Z,144
2017-09-14T06:06:41.434Z,156
2017-09-14T06:07:42.282Z,168
2017-09-14T06:08:43.015Z,180
2017-09-14T06:09:43.812Z,176
2017-09-14T06:10:44.532Z,176
2017-09-14T06:11:45.338Z,176
2017-09-14T06:12:46.239Z,180
2017-09-14T06:13:47.020Z,176
2017-09-14T06:14:47.818Z,180
2017-09-14T06:15:48.755Z,208
2017-09-14T06:16:49.726Z,208
2017-09-14T06:17:50.475Z,204
2017-09-14T06:18:51.277Z,208
2017-09-14T06:19:52.067Z,216
2017-09-14T06:20:52.940Z,236
2017-09-14T06:21:53.738Z,240
2017-09-14T06:22:57.549Z,220
2017-09-14T06:23:58.032Z,220
2017-09-14T06:24:58.864Z,228
2017-09-14T06:25:59.821Z,236
2017-09-14T06:27:00.625Z,224
2017-09-14T06:28:01.480Z,236
2017-09-14T06:29:02.271Z,288
2017-09-14T06:30:03.026Z,328
2017-09-14T06:31:04.030Z,332
2017-09-14T06:32:04.700Z,300
2017-09-14T06:33:05.573Z,276
2017-09-14T06:34:06.346Z,260
2017-09-14T06:35:07.056Z,256
2017-09-14T06:36:07.787Z,252
2017-09-14T06:37:08.513Z,248
2017-09-14T06:38:09.235Z,232
2017-09-14T06:39:09.960Z,224
2017-09-14T06:40:10.714Z,228
2017-09-14T06:41:11.481Z,232
2017-09-14T06:42:12.208Z,228
2017-09-14T06:43:13.155Z,220
2017-09-14T06:44:13.856Z,220
2017-09-14T06:45:14.627Z,216
2017-09-14T06:46:15.346Z,216
2017-09-14T06:47:16.062Z,212
2017-09-14T06:48:16.911Z,208
2017-09-14T06:49:17.589Z,200
2017-09-14T06:50:18.313Z,200
2017-09-14T06:51:19.024Z,200
2017-09-14T06:52:19.760Z,196
2017-09-14T06:53:20.524Z,196
2017-09-14T06:54:21.227Z,188
2017-09-14T06:55:22.032Z,188
2017-09-14T06:56:22.761Z,192
2017-09-14T06:57:23.503Z,200
2017-09-14T06:58:24.318Z,208
2017-09-14T06:59:25.049Z,228
2017-09-14T07:00:25.769Z,248
2017-09-14T07:01:26.477Z,252
2017-09-14T07:02:27.603Z,260
2017-09-14T07:03:28.269Z,280
2017-09-14T07:04:29.049Z,316
2017-09-14T07:05:29.753Z,344
2017-09-14T07:06:30.419Z,348
2017-09-14T07:07:31.129Z,364
2017-09-14T07:08:31.890Z,380
2017-09-14T07:09:32.980Z,388
2017-09-14T07:10:33.704Z,400
2017-09-14T07:11:34.446Z,440
2017-09-14T07:12:35.174Z,492
2017-09-14T07:13:35.878Z,492
2017-09-14T07:14:36.646Z,480
2017-09-14T07:15:37.424Z,528
2017-09-14T07:16:38.152Z,560
2017-09-14T07:17:38.858Z,568
2017-09-14T07:18:39.649Z,572
2017-09-14T07:19:40.369Z,564
2017-09-14T07:20:41.154Z,512
2017-09-14T07:21:41.943Z,488
2017-09-14T07:22:42.595Z,508
2017-09-14T07:23:43.408Z,516
2017-09-14T07:24:44.082Z,488
2017-09-14T07:25:44.886Z,488
2017-09-14T07:26:45.697Z,488
2017-09-14T07:27:46.415Z,460
2017-09-14T07:28:47.186Z,444
2017-09-14T07:29:47.915Z,412
2017-09-14T07:30:48.630Z,416
2017-09-14T07:31:49.360Z,444
2017-09-14T07:32:50.096Z,468
2017-09-14T07:33:50.933Z,472
2017-09-14T07:34:51.601Z,436
2017-09-14T07:35:52.305Z,408
2017-09-14T07:36:53.086Z,404
2017-09-14T07:37:53.760Z,388
2017-09-14T07:38:54.567Z,376
2017-09-14T07:39:55.259Z,352
2017-09-14T07:40:55.984Z,332
2017-09-14T07:41:56.760Z,312
2017-09-14T07:42:57.487Z,304
2017-09-14T07:43:58.164Z,284
2017-09-14T07:44:58.906Z,276
2017-09-14T07:45:59.661Z,268
2017-09-14T07:47:00.357Z,260
2017-09-14T07:48:01.060Z,256
2017-09-14T07:49:01.804Z,264
2017-09-14T07:50:02.477Z,276
2017-09-14T07:51:03.238Z,292
2017-09-14T07:52:03.951Z,308
2017-09-14T07:53:04.656Z,324
2017-09-14T07:54:05.402Z,332
2017-09-14T07:55:06.170Z,336
2017-09-14T07:56:06.943Z,348
2017-09-14T07:57:07.636Z,340
2017-09-14T07:58:08.406Z,348
2017-09-14T07:59:09.274Z,360
2017-09-14T08:00:10.103Z,376
2017-09-14T08:01:10.810Z,400
2017-09-14T08:02:11.510Z,424
2017-09-14T08:03:12.241Z,440
2017-09-14T08:04:13.898Z,448
2017-09-14T08:05:14.536Z,488
2017-09-14T08:06:15.272Z,516
2017-09-14T08:07:15.951Z,528
2017-09-14T08:08:16.752Z,512
2017-09-14T08:09:17.472Z,516
2017-09-14T08:10:18.220Z,540
2017-09-14T08:11:18.957Z,536
2017-09-14T08:12:19.679Z,544
2017-09-14T08:13:20.392Z,568
2017-09-14T08:14:21.161Z,572
2017-09-14T08:15:21.845Z,600
2017-09-14T08:16:22.593Z,616
2017-09-14T08:17:23.305Z,604
2017-09-14T08:18:24.065Z,604
2017-09-14T08:19:24.821Z,604
2017-09-14T08:20:25.504Z,600
2017-09-14T08:21:26.276Z,588
2017-09-14T08:22:26.959Z,580
2017-09-14T08:23:27.683Z,560
2017-09-14T08:24:28.355Z,540
2017-09-14T08:25:29.048Z,540
2017-09-14T08:26:29.791Z,532
2017-09-14T08:27:30.549Z,528
2017-09-14T08:28:31.241Z,512
2017-09-14T08:29:32.068Z,484
2017-09-14T08:30:32.835Z,456
2017-09-14T08:31:33.574Z,428
2017-09-14T08:32:34.303Z,420
2017-09-14T08:33:35.049Z,400
2017-09-14T08:34:35.801Z,400
2017-09-14T08:35:36.529Z,408
2017-09-14T08:36:37.207Z,408
2017-09-14T08:37:37.922Z,412
2017-09-14T08:38:38.691Z,416
2017-09-14T08:39:39.482Z,424
2017-09-14T08:40:40.231Z,428
2017-09-14T08:41:40.951Z,432
2017-09-14T08:42:41.682Z,440
2017-09-14T08:43:42.463Z,440
2017-09-14T08:44:43.234Z,444
2017-09-14T08:45:44.025Z,452
2017-09-14T08:46:44.699Z,448
2017-09-14T08:47:45.417Z,452
2017-09-14T08:48:46.175Z,460
2017-09-14T08:49:46.884Z,444
2017-09-14T08:50:47.560Z,448
2017-09-14T08:51:48.365Z,460
2017-09-14T08:52:49.090Z,448
2017-09-14T08:53:49.909Z,408
2017-09-14T08:54:50.586Z,384
2017-09-14T08:55:51.315Z,352
2017-09-14T08:56:52.066Z,328
2017-09-14T08:57:52.802Z,320
2017-09-14T08:58:53.553Z,312
2017-09-14T08:59:54.302Z,300
2017-09-14T09:00:55.124Z,292
2017-09-14T09:01:55.822Z,292
2017-09-14T09:02:56.554Z,296
2017-09-14T09:03:57.402Z,300
2017-09-14T09:04:58.129Z,312
2017-09-14T09:05:58.839Z,324
2017-09-14T09:06:59.637Z,332
2017-09-14T09:08:00.353Z,352
2017-09-14T09:09:01.068Z,368
2017-09-14T09:10:01.808Z,376
2017-09-14T09:11:02.526Z,364
2017-09-14T09:12:03.336Z,360
2017-09-14T09:13:04.100Z,356
2017-09-14T09:14:04.819Z,356
2017-09-14T09:15:05.751Z,356
2017-09-14T09:16:06.603Z,360
2017-09-14T09:17:07.368Z,364
2017-09-14T09:18:08.051Z,360
2017-09-14T09:19:08.870Z,356
2017-09-14T09:20:09.662Z,352
2017-09-14T09:21:10.394Z,352
2017-09-14T09:22:11.142Z,360
2017-09-14T09:23:12.420Z,364
2017-09-14T09:24:13.071Z,368
2017-09-14T09:25:13.791Z,368
2017-09-14T09:26:14.524Z,352
2017-09-14T09:27:15.298Z,336
2017-09-14T09:28:15.967Z,324
2017-09-14T09:29:16.717Z,336
2017-09-14T09:30:17.456Z,344
2017-09-14T09:31:18.281Z,352
2017-09-14T09:32:18.971Z,364
2017-09-14T09:33:19.677Z,364
2017-09-14T09:34:20.561Z,368
2017-09-14T09:35:21.328Z,368
2017-09-14T09:36:22.052Z,372
2017-09-14T09:37:22.798Z,356
2017-09-14T09:38:23.520Z,324
2017-09-14T09:39:24.243Z,292
2017-09-14T09:40:24.996Z,276
2017-09-14T09:41:25.818Z,260
2017-09-14T09:42:26.643Z,244
2017-09-14T09:43:27.346Z,256
2017-09-14T09:44:28.052Z,288
2017-09-14T09:45:29.128Z,308
2017-09-14T09:46:29.824Z,300
2017-09-14T09:47:30.518Z,280
2017-09-14T09:48:31.248Z,272
2017-09-14T09:49:31.982Z,272
2017-09-14T09:50:32.692Z,300
2017-09-14T09:51:33.384Z,340
2017-09-14T09:52:34.110Z,388
2017-09-14T09:53:34.792Z,436
2017-09-14T09:54:35.536Z,464
2017-09-14T09:55:36.239Z,476
2017-09-14T09:56:37.019Z,480
2017-09-14T09:57:37.717Z,456
2017-09-14T09:58:38.402Z,412
2017-09-14T09:59:39.125Z,368
2017-09-14T10:00:39.916Z,364
2017-09-14T10:01:40.573Z,376
2017-09-14T10:02:41.316Z,388
2017-09-14T10:03:42.159Z,380
2017-09-14T10:04:43.005Z,356
2017-09-14T10:05:44.357Z,368
2017-09-14T10:06:45.162Z,416
2017-09-14T10:07:45.906Z,476
2017-09-14T10:08:46.639Z,528
2017-09-14T10:09:47.355Z,540
2017-09-14T10:10:48.125Z,556
2017-09-14T10:11:48.937Z,552
2017-09-14T10:12:49.633Z,580
2017-09-14T10:13:50.364Z,612
2017-09-14T10:14:51.099Z,656
2017-09-14T10:15:51.843Z,668
2017-09-14T10:16:52.571Z,664
2017-09-14T10:17:53.767Z,652
2017-09-14T10:18:54.427Z,644
2017-09-14T10:20:56.666Z,576
2017-09-14T10:21:57.446Z,544
2017-09-14T10:22:58.126Z,536
2017-09-14T10:23:58.862Z,556
2017-09-14T10:24:59.670Z,596
2017-09-14T10:26:00.399Z,644
2017-09-14T10:27:01.136Z,592
2017-09-14T10:28:01.869Z,540
2017-09-14T10:29:02.544Z,504
2017-09-14T10:30:03.295Z,496
2017-09-14T10:31:04.131Z,500
2017-09-14T10:32:04.792Z,476
2017-09-14T10:33:05.555Z,468
2017-09-14T10:34:06.356Z,464
2017-09-14T10:35:07.084Z,452
2017-09-14T10:36:07.946Z,460
2017-09-14T10:37:08.673Z,472
2017-09-14T10:38:09.432Z,464
2017-09-14T10:39:10.230Z,476
2017-09-14T10:40:10.942Z,476
2017-09-14T10:41:11.685Z,476
2017-09-14T10:42:12.386Z,460
2017-09-14T10:43:13.526Z,448
2017-09-14T10:44:14.250Z,432
2017-09-14T10:45:15.175Z,408
2017-09-14T10:46:15.850Z,388
2017-09-14T10:47:16.574Z,384
2017-09-14T10:48:17.300Z,392
2017-09-14T10:49:18.316Z,384
2017-09-14T10:50:19.072Z,360
2017-09-14T10:51:19.906Z,352
2017-09-14T10:52:20.550Z,372
2017-09-14T10:53:21.372Z,404
2017-09-14T10:54:22.200Z,408
2017-09-14T10:55:23.013Z,408
2017-09-14T10:56:23.763Z,440
2017-09-14T10:57:24.513Z,468
2017-09-14T10:58:25.271Z,504
2017-09-14T10:59:26.011Z,520
2017-09-14T11:01:42.319Z,544
2017-09-14T11:02:43.037Z,536
2017-09-14T11:03:43.777Z,496
2017-09-14T11:04:44.466Z,456
2017-09-14T11:05:45.178Z,436
2017-09-14T11:06:45.978Z,472
2017-09-14T11:07:46.729Z,488
2017-09-14T11:08:47.740Z,544
2017-09-14T11:09:48.579Z,600
2017-09-14T11:10:49.353Z,600
2017-09-14T11:11:50.414Z,664
2017-09-14T11:12:51.803Z,836
2017-09-14T11:13:52.624Z,796
2017-09-14T11:14:53.510Z,720
2017-09-14T11:15:54.533Z,616
2017-09-14T11:16:55.291Z,608
2017-09-14T11:17:56.067Z,624
2017-09-14T11:18:56.857Z,652
2017-09-14T11:19:57.634Z,692
2017-09-14T11:20:58.454Z,684
2017-09-14T11:21:59.220Z,700
2017-09-14T11:23:00.113Z,756
2017-09-14T11:24:00.806Z,948
2017-09-14T11:25:01.987Z,896
2017-09-14T11:26:02.760Z,1024
2017-09-14T11:27:03.486Z,1032
2017-09-14T11:28:04.511Z,1044
2017-09-14T11:29:05.666Z,1008
2017-09-14T11:30:06.523Z,920
2017-09-14T11:31:07.557Z,796
2017-09-14T11:32:08.229Z,748
2017-09-14T11:33:08.974Z,772
2017-09-14T11:34:09.723Z,812
2017-09-14T11:35:10.430Z,836
2017-09-14T11:36:11.213Z,832
2017-09-14T11:37:11.949Z,804
2017-09-14T11:38:12.723Z,720
2017-09-14T11:39:13.477Z,636
2017-09-14T11:40:14.277Z,652
2017-09-14T11:41:15.035Z,680
2017-09-14T11:42:15.921Z,776
2017-09-14T11:43:16.673Z,764
2017-09-14T11:44:18.081Z,1000
2017-09-14T11:45:18.914Z,1280
2017-09-14T11:46:19.672Z,1452
2017-09-14T11:47:20.383Z,1292
2017-09-14T11:48:21.293Z,1220
2017-09-14T11:49:22.097Z,1164
2017-09-14T11:50:22.811Z,1256
2017-09-14T11:51:23.571Z,1540
2017-09-14T11:52:24.298Z,1556
2017-09-14T11:53:25.302Z,1236
2017-09-14T11:54:26.126Z,1040
2017-09-14T11:55:26.856Z,836
2017-09-14T11:56:27.516Z,780
2017-09-14T11:57:28.259Z,720
2017-09-14T11:58:29.005Z,584
2017-09-14T11:59:29.782Z,584
2017-09-14T12:00:30.574Z,588
2017-09-14T12:01:31.261Z,476
2017-09-14T12:02:32.016Z,448
2017-09-14T12:03:32.698Z,472
2017-09-14T12:04:33.405Z,520
2017-09-14T12:05:34.195Z,560
2017-09-14T12:06:34.902Z,612
2017-09-14T12:07:35.649Z,568
2017-09-14T12:08:36.398Z,608
2017-09-14T12:09:37.118Z,600
2017-09-14T12:10:37.849Z,624
2017-09-14T12:11:38.586Z,624
2017-09-14T12:12:39.295Z,600
2017-09-14T12:13:40.030Z,632
2017-09-14T12:14:40.931Z,696
2017-09-14T12:15:41.646Z,684
2017-09-14T12:16:42.381Z,744
2017-09-14T12:17:43.082Z,680
2017-09-14T12:18:43.803Z,500
2017-09-14T12:19:44.555Z,428
2017-09-14T12:20:45.291Z,432
2017-09-14T12:21:46.131Z,472
2017-09-14T12:22:46.942Z,528
2017-09-14T12:23:47.670Z,588
2017-09-14T12:24:48.381Z,644
2017-09-14T12:25:49.179Z,688
2017-09-14T12:26:49.927Z,824
2017-09-14T12:27:50.598Z,1028
2017-09-14T12:28:51.305Z,920
2017-09-14T12:29:52.123Z,696
2017-09-14T12:30:52.882Z,560
2017-09-14T12:31:53.681Z,476
2017-09-14T12:32:54.459Z,488
2017-09-14T12:33:55.164Z,484
2017-09-14T12:34:55.905Z,532
2017-09-14T12:35:56.777Z,660
2017-09-14T12:36:57.493Z,764
2017-09-14T12:37:58.245Z,820
2017-09-14T12:38:58.942Z,848
2017-09-14T12:39:59.662Z,864
2017-09-14T12:41:00.494Z,828
2017-09-14T12:42:01.292Z,752
2017-09-14T12:43:02.028Z,652
2017-09-14T12:44:02.855Z,736
2017-09-14T12:45:03.593Z,868
2017-09-14T12:46:04.380Z,1036
2017-09-14T12:47:05.100Z,912
2017-09-14T12:48:05.799Z,860
2017-09-14T12:49:06.540Z,772
2017-09-14T12:50:07.245Z,692
2017-09-14T12:51:08.020Z,728
2017-09-14T12:52:08.768Z,768
2017-09-14T12:53:09.708Z,748
2017-09-14T12:54:10.574Z,716
2017-09-14T12:55:11.259Z,680
2017-09-14T12:56:12.042Z,708
2017-09-14T12:57:12.781Z,760
2017-09-14T12:58:13.542Z,832
2017-09-14T12:59:14.332Z,1056
2017-09-14T13:00:15.160Z,852
2017-09-14T13:01:15.933Z,788
2017-09-14T13:02:16.674Z,820
2017-09-14T13:03:17.436Z,780
2017-09-14T13:04:18.129Z,972
2017-09-14T13:05:19.126Z,1080
2017-09-14T13:06:20.158Z,1160
2017-09-14T13:07:20.855Z,1228
2017-09-14T13:08:21.551Z,1300
2017-09-14T13:09:22.382Z,1456
2017-09-14T13:10:23.445Z,1492
2017-09-14T13:11:24.581Z,1768
2017-09-14T13:12:25.380Z,1804
2017-09-14T13:13:26.175Z,1576
2017-09-14T13:14:26.995Z,1400
2017-09-14T13:15:27.961Z,1264
2017-09-14T13:16:28.808Z,1132
2017-09-14T13:17:29.548Z,1068
2017-09-14T13:18:30.340Z,1032
2017-09-14T13:19:31.037Z,984
2017-09-14T13:20:31.782Z,892
2017-09-14T13:21:32.510Z,908
2017-09-14T13:22:33.317Z,1004
2017-09-14T13:23:34.045Z,1256
2017-09-14T13:24:34.838Z,1252
2017-09-14T13:25:35.972Z,1188
2017-09-14T13:26:36.766Z,1048
2017-09-14T13:27:38.924Z,1068
2017-09-14T13:28:39.693Z,1108
2017-09-14T13:29:40.411Z,1132
2017-09-14T13:31:56.853Z,1260
2017-09-14T13:32:57.821Z,1248
2017-09-14T13:33:58.554Z,1244
2017-09-14T13:34:59.302Z,1140
2017-09-14T13:36:00.051Z,932
2017-09-14T13:37:01.063Z,1236
2017-09-14T13:38:01.833Z,972
2017-09-14T13:39:02.738Z,972
2017-09-14T13:40:03.784Z,980
2017-09-14T13:41:04.609Z,1016
2017-09-14T13:44:36.378Z,916
2017-09-14T13:45:37.166Z,912
2017-09-14T13:46:37.956Z,972
2017-09-14T13:47:39.555Z,928
2017-09-14T13:48:40.304Z,992
2017-09-14T13:49:41.055Z,928
2017-09-14T13:50:41.830Z,788
2017-09-14T13:51:42.660Z,820
2017-09-14T13:52:43.380Z,996
2017-09-14T13:53:44.120Z,900
2017-09-14T13:54:45.078Z,1044
2017-09-14T13:55:45.889Z,1080
2017-09-14T13:56:46.701Z,1060
2017-09-14T13:57:47.457Z,1080
2017-09-14T13:58:48.379Z,836
2017-09-14T13:59:49.380Z,1028
2017-09-14T14:00:50.776Z,1048
2017-09-14T14:01:51.568Z,816
2017-09-14T14:02:52.323Z,936
2017-09-14T14:03:53.034Z,760
2017-09-14T14:04:53.816Z,764
2017-09-14T14:05:55.355Z,728
2017-09-14T14:06:56.259Z,740
2017-09-14T14:07:57.083Z,792
2017-09-14T14:08:57.875Z,716
2017-09-14T14:09:58.611Z,672
2017-09-14T14:10:59.392Z,628
2017-09-14T14:12:00.223Z,560
2017-09-14T14:13:00.974Z,508
2017-09-14T14:14:02.015Z,508
2017-09-14T14:16:04.527Z,460
2017-09-14T14:17:05.301Z,540
2017-09-14T14:18:06.104Z,848
2017-09-14T14:19:06.943Z,824
2017-09-14T14:20:07.723Z,700
2017-09-14T14:21:08.473Z,816
2017-09-14T14:22:09.292Z,872
2017-09-14T14:23:10.063Z,936
2017-09-14T14:24:10.798Z,1120
2017-09-14T14:25:11.559Z,952
2017-09-14T14:26:12.521Z,776